sensor_id;sensor_type;location;lat;lon;timestamp;P1;durP1;ratioP1;P2;durP2;ratioP2
49061;SDS011;34873;49.142;9.118;2024-01-11T00:01:35;0.30;;;0.25;;
49061;SDS011;34873;49.142;9.118;2024-01-11T00:04:07;0.20;;;0.20;;
49061;SDS011;34873;49.142;9.118;2024-01-11T00:06:39;0.22;;;0.22;;
49061;SDS011;34873;49.142;9.118;2024-01-11T00:09:08;0.22;;;0.22;;
49061;SDS011;34873;49.142;9.118;2024-01-11T00:11:35;0.20;;;0.20;;
49061;SDS011;34873;49.142;9.118;2024-01-11T00:14:03;0.50;;;0.17;;
49061;SDS011;34873;49.142;9.118;2024-01-11T00:16:28;0.28;;;0.28;;
49061;SDS011;34873;49.142;9.118;2024-01-11T00:18:59;0.20;;;0.15;;
49061;SDS011;34873;49.142;9.118;2024-01-11T00:21:29;0.30;;;0.20;;
49061;SDS011;34873;49.142;9.118;2024-01-11T00:23:57;0.20;;;0.20;;
49061;SDS011;34873;49.142;9.118;2024-01-11T00:26:27;0.28;;;0.25;;
49061;SDS011;34873;49.142;9.118;2024-01-11T00:28:55;0.50;;;0.20;;
49061;SDS011;34873;49.142;9.118;2024-01-11T00:31:23;0.30;;;0.30;;
49061;SDS011;34873;49.142;9.118;2024-01-11T00:33:50;0.50;;;0.30;;
49061;SDS011;34873;49.142;9.118;2024-01-11T00:36:18;0.38;;;0.30;;
49061;SDS011;34873;49.142;9.118;2024-01-11T00:38:47;0.32;;;0.17;;
49061;SDS011;34873;49.142;9.118;2024-01-11T00:41:13;0.10;;;0.10;;
49061;SDS011;34873;49.142;9.118;2024-01-11T00:43:40;0.15;;;0.10;;
49061;SDS011;34873;49.142;9.118;2024-01-11T00:46:09;0.20;;;0.20;;
49061;SDS011;34873;49.142;9.118;2024-01-11T00:48:34;0.30;;;0.30;;
49061;SDS011;34873;49.142;9.118;2024-01-11T00:51:03;0.30;;;0.30;;
49061;SDS011;34873;49.142;9.118;2024-01-11T00:53:29;0.10;;;0.10;;
49061;SDS011;34873;49.142;9.118;2024-01-11T00:55:59;0.20;;;0.20;;
49061;SDS011;34873;49.142;9.118;2024-01-11T00:58:27;0.38;;;0.38;;
49061;SDS011;34873;49.142;9.118;2024-01-11T01:00:55;0.30;;;0.20;;
49061;SDS011;34873;49.142;9.118;2024-01-11T01:03:23;0.52;;;0.40;;
49061;SDS011;34873;49.142;9.118;2024-01-11T01:05:48;0.30;;;0.30;;
49061;SDS011;34873;49.142;9.118;2024-01-11T01:08:14;0.20;;;0.20;;
49061;SDS011;34873;49.142;9.118;2024-01-11T01:10:39;0.30;;;0.30;;
49061;SDS011;34873;49.142;9.118;2024-01-11T01:13:08;0.30;;;0.30;;
49061;SDS011;34873;49.142;9.118;2024-01-11T01:15:40;0.20;;;0.20;;
49061;SDS011;34873;49.142;9.118;2024-01-11T01:18:12;0.55;;;0.30;;
49061;SDS011;34873;49.142;9.118;2024-01-11T01:20:43;0.32;;;0.32;;
49061;SDS011;34873;49.142;9.118;2024-01-11T01:23:15;0.32;;;0.32;;
49061;SDS011;34873;49.142;9.118;2024-01-11T01:25:41;0.40;;;0.40;;
49061;SDS011;34873;49.142;9.118;2024-01-11T01:28:07;0.38;;;0.25;;
49061;SDS011;34873;49.142;9.118;2024-01-11T01:30:35;0.30;;;0.30;;
49061;SDS011;34873;49.142;9.118;2024-01-11T01:33:05;0.20;;;0.20;;
49061;SDS011;34873;49.142;9.118;2024-01-11T01:35:33;0.30;;;0.30;;
49061;SDS011;34873;49.142;9.118;2024-01-11T01:38:03;1.13;;;0.30;;
49061;SDS011;34873;49.142;9.118;2024-01-11T01:40:31;0.38;;;0.25;;
49061;SDS011;34873;49.142;9.118;2024-01-11T01:43:00;0.32;;;0.20;;
49061;SDS011;34873;49.142;9.118;2024-01-11T01:45:25;0.50;;;0.30;;
49061;SDS011;34873;49.142;9.118;2024-01-11T01:48:10;0.37;;;0.30;;
49061;SDS011;34873;49.142;9.118;2024-01-11T01:50:35;0.82;;;0.50;;
49061;SDS011;34873;49.142;9.118;2024-01-11T01:53:01;0.30;;;0.30;;
49061;SDS011;34873;49.142;9.118;2024-01-11T01:57:57;0.55;;;0.40;;
49061;SDS011;34873;49.142;9.118;2024-01-11T02:00:23;0.60;;;0.40;;
49061;SDS011;34873;49.142;9.118;2024-01-11T02:02:50;0.20;;;0.10;;
49061;SDS011;34873;49.142;9.118;2024-01-11T02:05:18;0.30;;;0.20;;
49061;SDS011;34873;49.142;9.118;2024-01-11T02:07:46;0.63;;;0.35;;
49061;SDS011;34873;49.142;9.118;2024-01-11T02:10:12;0.70;;;0.40;;
49061;SDS011;34873;49.142;9.118;2024-01-11T02:12:39;0.20;;;0.20;;
49061;SDS011;34873;49.142;9.118;2024-01-11T02:15:08;0.40;;;0.40;;
49061;SDS011;34873;49.142;9.118;2024-01-11T02:17:34;0.52;;;0.30;;
49061;SDS011;34873;49.142;9.118;2024-01-11T02:20:02;0.43;;;0.25;;
49061;SDS011;34873;49.142;9.118;2024-01-11T02:22:37;0.20;;;0.13;;
49061;SDS011;34873;49.142;9.118;2024-01-11T02:25:06;0.30;;;0.30;;
49061;SDS011;34873;49.142;9.118;2024-01-11T02:27:48;0.57;;;0.30;;
49061;SDS011;34873;49.142;9.118;2024-01-11T02:30:17;0.80;;;0.30;;
49061;SDS011;34873;49.142;9.118;2024-01-11T02:32:46;0.40;;;0.20;;
49061;SDS011;34873;49.142;9.118;2024-01-11T02:35:18;0.30;;;0.30;;
49061;SDS011;34873;49.142;9.118;2024-01-11T02:37:46;0.35;;;0.20;;
49061;SDS011;34873;49.142;9.118;2024-01-11T02:40:13;0.22;;;0.22;;
49061;SDS011;34873;49.142;9.118;2024-01-11T02:42:39;0.15;;;0.15;;
49061;SDS011;34873;49.142;9.118;2024-01-11T02:45:04;0.52;;;0.30;;
49061;SDS011;34873;49.142;9.118;2024-01-11T02:47:32;1.75;;;0.40;;
49061;SDS011;34873;49.142;9.118;2024-01-11T02:50:03;0.22;;;0.22;;
49061;SDS011;34873;49.142;9.118;2024-01-11T02:52:31;0.45;;;0.22;;
49061;SDS011;34873;49.142;9.118;2024-01-11T02:54:59;3.00;;;0.20;;
49061;SDS011;34873;49.142;9.118;2024-01-11T02:57:29;0.47;;;0.25;;
49061;SDS011;34873;49.142;9.118;2024-01-11T02:59:57;0.52;;;0.28;;
49061;SDS011;34873;49.142;9.118;2024-01-11T03:02:24;0.10;;;0.10;;
49061;SDS011;34873;49.142;9.118;2024-01-11T03:04:54;0.30;;;0.28;;
49061;SDS011;34873;49.142;9.118;2024-01-11T03:07:20;0.40;;;0.28;;
49061;SDS011;34873;49.142;9.118;2024-01-11T03:09:45;0.30;;;0.30;;
49061;SDS011;34873;49.142;9.118;2024-01-11T03:12:13;0.10;;;0.10;;
49061;SDS011;34873;49.142;9.118;2024-01-11T03:14:38;0.20;;;0.20;;
49061;SDS011;34873;49.142;9.118;2024-01-11T03:17:06;0.30;;;0.20;;
49061;SDS011;34873;49.142;9.118;2024-01-11T03:19:39;0.28;;;0.17;;
49061;SDS011;34873;49.142;9.118;2024-01-11T03:22:11;0.10;;;0.10;;
49061;SDS011;34873;49.142;9.118;2024-01-11T03:24:40;0.20;;;0.20;;
49061;SDS011;34873;49.142;9.118;2024-01-11T03:27:10;0.20;;;0.20;;
49061;SDS011;34873;49.142;9.118;2024-01-11T03:29:40;0.13;;;0.13;;
49061;SDS011;34873;49.142;9.118;2024-01-11T03:32:06;0.20;;;0.20;;
49061;SDS011;34873;49.142;9.118;2024-01-11T03:34:36;0.10;;;0.10;;
49061;SDS011;34873;49.142;9.118;2024-01-11T03:37:04;0.70;;;0.30;;
49061;SDS011;34873;49.142;9.118;2024-01-11T03:39:29;0.38;;;0.30;;
49061;SDS011;34873;49.142;9.118;2024-01-11T03:41:58;0.20;;;0.20;;
49061;SDS011;34873;49.142;9.118;2024-01-11T03:44:25;0.10;;;0.10;;
49061;SDS011;34873;49.142;9.118;2024-01-11T03:46:56;0.25;;;0.20;;
49061;SDS011;34873;49.142;9.118;2024-01-11T03:49:23;0.17;;;0.17;;
49061;SDS011;34873;49.142;9.118;2024-01-11T03:51:51;0.20;;;0.20;;
49061;SDS011;34873;49.142;9.118;2024-01-11T03:54:16;0.20;;;0.20;;
49061;SDS011;34873;49.142;9.118;2024-01-11T03:56:44;0.38;;;0.38;;
49061;SDS011;34873;49.142;9.118;2024-01-11T03:59:10;0.20;;;0.20;;
49061;SDS011;34873;49.142;9.118;2024-01-11T04:01:39;0.47;;;0.20;;
49061;SDS011;34873;49.142;9.118;2024-01-11T04:04:07;0.22;;;0.22;;
49061;SDS011;34873;49.142;9.118;2024-01-11T04:06:38;0.52;;;0.20;;
49061;SDS011;34873;49.142;9.118;2024-01-11T04:09:08;0.20;;;0.20;;
49061;SDS011;34873;49.142;9.118;2024-01-11T04:11:34;0.20;;;0.20;;
49061;SDS011;34873;49.142;9.118;2024-01-11T04:14:01;0.80;;;0.30;;
49061;SDS011;34873;49.142;9.118;2024-01-11T04:16:31;0.50;;;0.25;;
49061;SDS011;34873;49.142;9.118;2024-01-11T04:18:57;0.20;;;0.20;;
49061;SDS011;34873;49.142;9.118;2024-01-11T04:21:27;0.10;;;0.10;;
49061;SDS011;34873;49.142;9.118;2024-01-11T04:23:56;0.20;;;0.20;;
49061;SDS011;34873;49.142;9.118;2024-01-11T04:26:22;0.30;;;0.30;;
49061;SDS011;34873;49.142;9.118;2024-01-11T04:28:47;0.20;;;0.20;;
49061;SDS011;34873;49.142;9.118;2024-01-11T04:31:14;0.20;;;0.20;;
49061;SDS011;34873;49.142;9.118;2024-01-11T04:33:46;0.88;;;0.20;;
49061;SDS011;34873;49.142;9.118;2024-01-11T04:36:13;0.20;;;0.20;;
49061;SDS011;34873;49.142;9.118;2024-01-11T04:38:39;0.68;;;0.10;;
49061;SDS011;34873;49.142;9.118;2024-01-11T04:41:11;2.30;;;0.20;;
49061;SDS011;34873;49.142;9.118;2024-01-11T04:43:40;0.20;;;0.20;;
49061;SDS011;34873;49.142;9.118;2024-01-11T04:46:15;0.30;;;0.30;;
49061;SDS011;34873;49.142;9.118;2024-01-11T04:48:43;0.30;;;0.30;;
49061;SDS011;34873;49.142;9.118;2024-01-11T04:51:12;0.77;;;0.20;;
49061;SDS011;34873;49.142;9.118;2024-01-11T04:53:40;0.30;;;0.30;;
49061;SDS011;34873;49.142;9.118;2024-01-11T04:56:09;0.20;;;0.20;;
49061;SDS011;34873;49.142;9.118;2024-01-11T04:58:40;0.30;;;0.30;;
49061;SDS011;34873;49.142;9.118;2024-01-11T05:03:45;0.20;;;0.20;;
49061;SDS011;34873;49.142;9.118;2024-01-11T05:06:18;0.30;;;0.30;;
49061;SDS011;34873;49.142;9.118;2024-01-11T05:08:47;0.22;;;0.20;;
49061;SDS011;34873;49.142;9.118;2024-01-11T05:11:17;0.55;;;0.20;;
49061;SDS011;34873;49.142;9.118;2024-01-11T05:13:49;0.22;;;0.20;;
49061;SDS011;34873;49.142;9.118;2024-01-11T05:16:25;3.72;;;0.20;;
49061;SDS011;34873;49.142;9.118;2024-01-11T05:18:52;0.22;;;0.20;;
49061;SDS011;34873;49.142;9.118;2024-01-11T05:21:21;0.20;;;0.20;;
49061;SDS011;34873;49.142;9.118;2024-01-11T05:23:49;0.20;;;0.20;;
49061;SDS011;34873;49.142;9.118;2024-01-11T05:26:16;0.50;;;0.20;;
49061;SDS011;34873;49.142;9.118;2024-01-11T05:28:44;0.40;;;0.40;;
49061;SDS011;34873;49.142;9.118;2024-01-11T05:31:10;0.20;;;0.20;;
49061;SDS011;34873;49.142;9.118;2024-01-11T05:33:40;0.43;;;0.40;;
49061;SDS011;34873;49.142;9.118;2024-01-11T05:36:06;0.40;;;0.40;;
49061;SDS011;34873;49.142;9.118;2024-01-11T05:38:32;0.40;;;0.40;;
49061;SDS011;34873;49.142;9.118;2024-01-11T05:40:58;0.60;;;0.60;;
49061;SDS011;34873;49.142;9.118;2024-01-11T05:43:23;0.40;;;0.40;;
49061;SDS011;34873;49.142;9.118;2024-01-11T05:45:49;0.77;;;0.52;;
49061;SDS011;34873;49.142;9.118;2024-01-11T05:48:17;0.68;;;0.52;;
49061;SDS011;34873;49.142;9.118;2024-01-11T05:50:43;0.50;;;0.50;;
49061;SDS011;34873;49.142;9.118;2024-01-11T05:53:09;0.80;;;0.47;;
49061;SDS011;34873;49.142;9.118;2024-01-11T05:55:35;0.70;;;0.52;;
49061;SDS011;34873;49.142;9.118;2024-01-11T05:58:03;2.67;;;0.70;;
49061;SDS011;34873;49.142;9.118;2024-01-11T06:00:31;0.52;;;0.52;;
49061;SDS011;34873;49.142;9.118;2024-01-11T06:02:56;0.38;;;0.35;;
49061;SDS011;34873;49.142;9.118;2024-01-11T06:05:25;1.50;;;0.57;;
49061;SDS011;34873;49.142;9.118;2024-01-11T06:07:50;0.60;;;0.60;;
49061;SDS011;34873;49.142;9.118;2024-01-11T06:10:16;1.17;;;0.82;;
49061;SDS011;34873;49.142;9.118;2024-01-11T06:12:42;0.35;;;0.30;;
49061;SDS011;34873;49.142;9.118;2024-01-11T06:15:07;0.40;;;0.40;;
49061;SDS011;34873;49.142;9.118;2024-01-11T06:17:35;0.30;;;0.30;;
49061;SDS011;34873;49.142;9.118;2024-01-11T06:20:03;0.65;;;0.47;;
49061;SDS011;34873;49.142;9.118;2024-01-11T06:22:30;0.75;;;0.60;;
49061;SDS011;34873;49.142;9.118;2024-01-11T06:24:55;0.40;;;0.40;;
49061;SDS011;34873;49.142;9.118;2024-01-11T06:27:22;0.47;;;0.47;;
49061;SDS011;34873;49.142;9.118;2024-01-11T06:29:50;0.68;;;0.40;;
49061;SDS011;34873;49.142;9.118;2024-01-11T06:32:18;0.68;;;0.68;;
49061;SDS011;34873;49.142;9.118;2024-01-11T06:34:43;0.40;;;0.40;;
49061;SDS011;34873;49.142;9.118;2024-01-11T06:37:11;0.65;;;0.40;;
49061;SDS011;34873;49.142;9.118;2024-01-11T06:39:39;0.70;;;0.70;;
49061;SDS011;34873;49.142;9.118;2024-01-11T06:42:04;1.10;;;0.40;;
49061;SDS011;34873;49.142;9.118;2024-01-11T06:44:30;0.47;;;0.47;;
49061;SDS011;34873;49.142;9.118;2024-01-11T06:46:56;0.82;;;0.47;;
49061;SDS011;34873;49.142;9.118;2024-01-11T06:49:21;0.38;;;0.38;;
49061;SDS011;34873;49.142;9.118;2024-01-11T06:51:47;0.63;;;0.60;;
49061;SDS011;34873;49.142;9.118;2024-01-11T06:54:12;0.40;;;0.40;;
49061;SDS011;34873;49.142;9.118;2024-01-11T06:56:38;0.98;;;0.63;;
49061;SDS011;34873;49.142;9.118;2024-01-11T06:59:06;0.70;;;0.70;;
49061;SDS011;34873;49.142;9.118;2024-01-11T07:01:34;0.50;;;0.38;;
49061;SDS011;34873;49.142;9.118;2024-01-11T07:04:02;0.50;;;0.50;;
49061;SDS011;34873;49.142;9.118;2024-01-11T07:06:28;1.60;;;0.80;;
49061;SDS011;34873;49.142;9.118;2024-01-11T07:08:55;2.10;;;0.52;;
49061;SDS011;34873;49.142;9.118;2024-01-11T07:11:21;0.80;;;0.70;;
49061;SDS011;34873;49.142;9.118;2024-01-11T07:13:51;0.93;;;0.70;;
49061;SDS011;34873;49.142;9.118;2024-01-11T07:16:19;0.52;;;0.52;;
49061;SDS011;34873;49.142;9.118;2024-01-11T07:18:45;0.50;;;0.50;;
49061;SDS011;34873;49.142;9.118;2024-01-11T07:21:10;0.68;;;0.50;;
49061;SDS011;34873;49.142;9.118;2024-01-11T07:23:36;2.20;;;0.63;;
49061;SDS011;34873;49.142;9.118;2024-01-11T07:26:01;0.52;;;0.52;;
49061;SDS011;34873;49.142;9.118;2024-01-11T07:28:31;1.10;;;0.77;;
49061;SDS011;34873;49.142;9.118;2024-01-11T07:30:57;0.50;;;0.50;;
49061;SDS011;34873;49.142;9.118;2024-01-11T07:33:27;0.77;;;0.50;;
49061;SDS011;34873;49.142;9.118;2024-01-11T07:35:52;0.65;;;0.65;;
49061;SDS011;34873;49.142;9.118;2024-01-11T07:38:22;3.30;;;0.68;;
49061;SDS011;34873;49.142;9.118;2024-01-11T07:40:48;1.00;;;0.63;;
49061;SDS011;34873;49.142;9.118;2024-01-11T07:43:13;2.13;;;0.93;;
49061;SDS011;34873;49.142;9.118;2024-01-11T07:45:39;0.60;;;0.60;;
49061;SDS011;34873;49.142;9.118;2024-01-11T07:48:04;2.95;;;0.93;;
49061;SDS011;34873;49.142;9.118;2024-01-11T07:50:33;1.95;;;0.50;;
49061;SDS011;34873;49.142;9.118;2024-01-11T07:52:59;0.73;;;0.57;;
49061;SDS011;34873;49.142;9.118;2024-01-11T07:55:24;1.15;;;0.47;;
49061;SDS011;34873;49.142;9.118;2024-01-11T07:57:51;0.50;;;0.40;;
49061;SDS011;34873;49.142;9.118;2024-01-11T08:00:19;1.05;;;0.70;;
49061;SDS011;34873;49.142;9.118;2024-01-11T08:02:45;0.80;;;0.70;;
49061;SDS011;34873;49.142;9.118;2024-01-11T08:05:11;0.75;;;0.70;;
49061;SDS011;34873;49.142;9.118;2024-01-11T08:07:41;0.98;;;0.88;;
49061;SDS011;34873;49.142;9.118;2024-01-11T08:10:07;1.60;;;0.95;;
49061;SDS011;34873;49.142;9.118;2024-01-11T08:12:34;0.73;;;0.70;;
49061;SDS011;34873;49.142;9.118;2024-01-11T08:15:04;7.70;;;0.60;;
49061;SDS011;34873;49.142;9.118;2024-01-11T08:17:30;17.85;;;8.15;;
49061;SDS011;34873;49.142;9.118;2024-01-11T08:19:58;26.88;;;15.25;;
49061;SDS011;34873;49.142;9.118;2024-01-11T08:22:23;21.35;;;14.85;;
49061;SDS011;34873;49.142;9.118;2024-01-11T08:24:49;29.13;;;15.65;;
49061;SDS011;34873;49.142;9.118;2024-01-11T08:27:15;20.55;;;12.57;;
49061;SDS011;34873;49.142;9.118;2024-01-11T08:29:44;21.13;;;10.13;;
49061;SDS011;34873;49.142;9.118;2024-01-11T08:32:11;14.57;;;10.05;;
49061;SDS011;34873;49.142;9.118;2024-01-11T08:34:37;18.25;;;9.15;;
49061;SDS011;34873;49.142;9.118;2024-01-11T08:37:05;13.88;;;8.25;;
49061;SDS011;34873;49.142;9.118;2024-01-11T08:39:32;16.33;;;7.57;;
49061;SDS011;34873;49.142;9.118;2024-01-11T08:42:01;9.50;;;6.80;;
49061;SDS011;34873;49.142;9.118;2024-01-11T08:44:29;12.00;;;6.53;;
49061;SDS011;34873;49.142;9.118;2024-01-11T08:46:55;9.77;;;5.78;;
49061;SDS011;34873;49.142;9.118;2024-01-11T08:49:22;9.25;;;5.40;;
49061;SDS011;34873;49.142;9.118;2024-01-11T08:51:48;7.72;;;4.70;;
49061;SDS011;34873;49.142;9.118;2024-01-11T08:54:15;5.85;;;4.00;;
49061;SDS011;34873;49.142;9.118;2024-01-11T08:56:41;3.80;;;3.08;;
49061;SDS011;34873;49.142;9.118;2024-01-11T08:59:07;5.03;;;3.60;;
49061;SDS011;34873;49.142;9.118;2024-01-11T09:01:36;5.22;;;3.42;;
49061;SDS011;34873;49.142;9.118;2024-01-11T09:04:02;3.60;;;3.10;;
49061;SDS011;34873;49.142;9.118;2024-01-11T09:06:29;5.32;;;2.75;;
49061;SDS011;34873;49.142;9.118;2024-01-11T09:08:55;4.00;;;2.63;;
49061;SDS011;34873;49.142;9.118;2024-01-11T09:11:20;2.05;;;1.85;;
49061;SDS011;34873;49.142;9.118;2024-01-11T09:13:46;2.35;;;2.00;;
49061;SDS011;34873;49.142;9.118;2024-01-11T09:16:18;3.55;;;2.20;;
49061;SDS011;34873;49.142;9.118;2024-01-11T09:18:44;2.60;;;1.88;;
49061;SDS011;34873;49.142;9.118;2024-01-11T09:21:10;2.17;;;1.88;;
49061;SDS011;34873;49.142;9.118;2024-01-11T09:23:37;3.67;;;1.80;;
49061;SDS011;34873;49.142;9.118;2024-01-11T09:26:03;2.00;;;1.55;;
49061;SDS011;34873;49.142;9.118;2024-01-11T09:28:29;2.47;;;2.00;;
49061;SDS011;34873;49.142;9.118;2024-01-11T09:30:57;2.10;;;1.90;;
49061;SDS011;34873;49.142;9.118;2024-01-11T09:33:25;2.55;;;1.80;;
49061;SDS011;34873;49.142;9.118;2024-01-11T09:35:51;3.50;;;1.85;;
49061;SDS011;34873;49.142;9.118;2024-01-11T09:38:17;1.98;;;1.52;;
49061;SDS011;34873;49.142;9.118;2024-01-11T09:40:44;2.35;;;1.55;;
49061;SDS011;34873;49.142;9.118;2024-01-11T09:43:10;1.92;;;1.60;;
49061;SDS011;34873;49.142;9.118;2024-01-11T09:45:37;4.32;;;1.95;;
49061;SDS011;34873;49.142;9.118;2024-01-11T09:48:05;2.55;;;1.77;;
49061;SDS011;34873;49.142;9.118;2024-01-11T09:50:33;4.53;;;1.92;;
49061;SDS011;34873;49.142;9.118;2024-01-11T09:53:01;2.65;;;1.60;;
49061;SDS011;34873;49.142;9.118;2024-01-11T09:57:59;1.33;;;1.20;;
49061;SDS011;34873;49.142;9.118;2024-01-11T10:00:25;1.67;;;1.35;;
49061;SDS011;34873;49.142;9.118;2024-01-11T10:02:52;1.80;;;1.15;;
49061;SDS011;34873;49.142;9.118;2024-01-11T10:05:18;1.13;;;1.00;;
49061;SDS011;34873;49.142;9.118;2024-01-11T10:07:44;1.02;;;0.88;;
49061;SDS011;34873;49.142;9.118;2024-01-11T10:10:11;2.08;;;0.90;;
49061;SDS011;34873;49.142;9.118;2024-01-11T10:12:41;1.52;;;1.10;;
49061;SDS011;34873;49.142;9.118;2024-01-11T10:15:08;1.45;;;1.23;;
49061;SDS011;34873;49.142;9.118;2024-01-11T10:17:41;1.33;;;1.23;;
49061;SDS011;34873;49.142;9.118;2024-01-11T10:20:14;1.63;;;1.15;;
49061;SDS011;34873;49.142;9.118;2024-01-11T10:22:40;2.05;;;1.40;;
49061;SDS011;34873;49.142;9.118;2024-01-11T10:25:10;1.73;;;1.20;;
49061;SDS011;34873;49.142;9.118;2024-01-11T10:27:40;1.63;;;1.50;;
49061;SDS011;34873;49.142;9.118;2024-01-11T10:30:13;4.68;;;2.25;;
49061;SDS011;34873;49.142;9.118;2024-01-11T10:32:41;2.85;;;2.10;;
49061;SDS011;34873;49.142;9.118;2024-01-11T10:35:10;4.28;;;2.53;;
49061;SDS011;34873;49.142;9.118;2024-01-11T10:37:36;4.10;;;2.40;;
49061;SDS011;34873;49.142;9.118;2024-01-11T10:40:07;3.00;;;2.05;;
49061;SDS011;34873;49.142;9.118;2024-01-11T10:42:41;3.55;;;2.30;;
49061;SDS011;34873;49.142;9.118;2024-01-11T10:45:17;3.10;;;1.95;;
49061;SDS011;34873;49.142;9.118;2024-01-11T10:47:50;8.68;;;1.50;;
49061;SDS011;34873;49.142;9.118;2024-01-11T10:50:26;3.97;;;1.60;;
49061;SDS011;34873;49.142;9.118;2024-01-11T10:53:01;2.33;;;1.50;;
49061;SDS011;34873;49.142;9.118;2024-01-11T10:58:19;3.13;;;1.48;;
49061;SDS011;34873;49.142;9.118;2024-01-11T11:00:46;2.22;;;1.33;;
49061;SDS011;34873;49.142;9.118;2024-01-11T11:03:14;3.08;;;1.35;;
49061;SDS011;34873;49.142;9.118;2024-01-11T11:05:43;1.10;;;1.00;;
49061;SDS011;34873;49.142;9.118;2024-01-11T11:08:10;1.92;;;1.20;;
49061;SDS011;34873;49.142;9.118;2024-01-11T11:10:37;1.27;;;1.00;;
49061;SDS011;34873;49.142;9.118;2024-01-11T11:13:04;1.40;;;1.27;;
49061;SDS011;34873;49.142;9.118;2024-01-11T11:18:22;4.03;;;1.60;;
49061;SDS011;34873;49.142;9.118;2024-01-11T11:20:50;2.38;;;1.10;;
49061;SDS011;34873;49.142;9.118;2024-01-11T11:23:16;1.20;;;0.80;;
49061;SDS011;34873;49.142;9.118;2024-01-11T11:25:45;3.60;;;1.02;;
49061;SDS011;34873;49.142;9.118;2024-01-11T11:28:15;1.30;;;1.20;;
49061;SDS011;34873;49.142;9.118;2024-01-11T11:30:44;2.50;;;1.30;;
49061;SDS011;34873;49.142;9.118;2024-01-11T11:33:20;3.33;;;1.77;;
49061;SDS011;34873;49.142;9.118;2024-01-11T11:35:48;2.78;;;1.95;;
49061;SDS011;34873;49.142;9.118;2024-01-11T11:38:18;3.63;;;1.77;;
49061;SDS011;34873;49.142;9.118;2024-01-11T11:40:48;2.10;;;1.65;;
49061;SDS011;34873;49.142;9.118;2024-01-11T11:43:17;1.92;;;1.50;;
49061;SDS011;34873;49.142;9.118;2024-01-11T11:45:46;2.00;;;1.38;;
49061;SDS011;34873;49.142;9.118;2024-01-11T11:53:35;1.88;;;1.67;;
49061;SDS011;34873;49.142;9.118;2024-01-11T11:56:06;2.08;;;1.60;;
49061;SDS011;34873;49.142;9.118;2024-01-11T11:58:34;3.03;;;1.27;;
49061;SDS011;34873;49.142;9.118;2024-01-11T12:00:59;2.80;;;1.40;;
49061;SDS011;34873;49.142;9.118;2024-01-11T12:03:35;5.13;;;1.60;;
49061;SDS011;34873;49.142;9.118;2024-01-11T12:06:04;1.38;;;1.20;;
49061;SDS011;34873;49.142;9.118;2024-01-11T12:08:33;1.20;;;1.10;;
49061;SDS011;34873;49.142;9.118;2024-01-11T12:11:00;1.38;;;1.27;;
49061;SDS011;34873;49.142;9.118;2024-01-11T12:13:28;1.98;;;1.15;;
49061;SDS011;34873;49.142;9.118;2024-01-11T12:15:56;0.85;;;0.70;;
49061;SDS011;34873;49.142;9.118;2024-01-11T12:18:21;2.20;;;1.08;;
49061;SDS011;34873;49.142;9.118;2024-01-11T12:20:49;0.75;;;0.75;;
49061;SDS011;34873;49.142;9.118;2024-01-11T12:23:18;3.55;;;1.35;;
49061;SDS011;34873;49.142;9.118;2024-01-11T12:25:46;1.13;;;1.00;;
49061;SDS011;34873;49.142;9.118;2024-01-11T12:28:16;2.38;;;1.50;;
49061;SDS011;34873;49.142;9.118;2024-01-11T12:30:42;4.28;;;2.13;;
49061;SDS011;34873;49.142;9.118;2024-01-11T12:33:07;4.93;;;1.85;;
49061;SDS011;34873;49.142;9.118;2024-01-11T12:35:33;3.78;;;1.98;;
49061;SDS011;34873;49.142;9.118;2024-01-11T12:38:02;1.48;;;1.30;;
49061;SDS011;34873;49.142;9.118;2024-01-11T12:40:32;1.90;;;1.25;;
49061;SDS011;34873;49.142;9.118;2024-01-11T12:43:01;1.73;;;1.35;;
49061;SDS011;34873;49.142;9.118;2024-01-11T12:47:57;1.35;;;1.05;;
49061;SDS011;34873;49.142;9.118;2024-01-11T12:53:14;1.10;;;1.00;;
49061;SDS011;34873;49.142;9.118;2024-01-11T12:55:48;0.98;;;0.95;;
49061;SDS011;34873;49.142;9.118;2024-01-11T12:58:23;1.10;;;1.00;;
49061;SDS011;34873;49.142;9.118;2024-01-11T13:00:50;0.70;;;0.70;;
49061;SDS011;34873;49.142;9.118;2024-01-11T13:03:19;1.13;;;0.70;;
49061;SDS011;34873;49.142;9.118;2024-01-11T13:05:51;1.33;;;1.10;;
49061;SDS011;34873;49.142;9.118;2024-01-11T13:08:21;0.98;;;0.70;;
49061;SDS011;34873;49.142;9.118;2024-01-11T13:10:49;2.58;;;1.00;;
49061;SDS011;34873;49.142;9.118;2024-01-11T13:13:14;1.48;;;0.75;;
49061;SDS011;34873;49.142;9.118;2024-01-11T13:15:40;1.48;;;0.90;;
49061;SDS011;34873;49.142;9.118;2024-01-11T13:18:08;0.73;;;0.73;;
49061;SDS011;34873;49.142;9.118;2024-01-11T13:23:13;0.82;;;0.60;;
49061;SDS011;34873;49.142;9.118;2024-01-11T13:25:47;0.65;;;0.65;;
49061;SDS011;34873;49.142;9.118;2024-01-11T13:28:17;0.77;;;0.75;;
49061;SDS011;34873;49.142;9.118;2024-01-11T13:30:52;0.60;;;0.50;;
49061;SDS011;34873;49.142;9.118;2024-01-11T13:33:22;0.50;;;0.50;;
49061;SDS011;34873;49.142;9.118;2024-01-11T13:35:49;0.90;;;0.65;;
49061;SDS011;34873;49.142;9.118;2024-01-11T13:38:14;0.60;;;0.60;;
49061;SDS011;34873;49.142;9.118;2024-01-11T13:40:40;0.95;;;0.50;;
49061;SDS011;34873;49.142;9.118;2024-01-11T13:43:10;0.98;;;0.80;;
49061;SDS011;34873;49.142;9.118;2024-01-11T13:45:36;0.77;;;0.73;;
49061;SDS011;34873;49.142;9.118;2024-01-11T13:48:02;0.90;;;0.63;;
49061;SDS011;34873;49.142;9.118;2024-01-11T13:50:28;0.63;;;0.50;;
49061;SDS011;34873;49.142;9.118;2024-01-11T13:53:06;0.82;;;0.60;;
49061;SDS011;34873;49.142;9.118;2024-01-11T13:55:39;0.88;;;0.40;;
49061;SDS011;34873;49.142;9.118;2024-01-11T13:58:13;0.45;;;0.43;;
49061;SDS011;34873;49.142;9.118;2024-01-11T14:03:08;0.40;;;0.33;;
49061;SDS011;34873;49.142;9.118;2024-01-11T14:05:38;0.32;;;0.32;;
49061;SDS011;34873;49.142;9.118;2024-01-11T14:08:09;0.40;;;0.40;;
49061;SDS011;34873;49.142;9.118;2024-01-11T14:10:37;0.65;;;0.40;;
49061;SDS011;34873;49.142;9.118;2024-01-11T14:13:14;0.52;;;0.52;;
49061;SDS011;34873;49.142;9.118;2024-01-11T14:15:44;0.80;;;0.50;;
49061;SDS011;34873;49.142;9.118;2024-01-11T14:18:13;0.30;;;0.30;;
49061;SDS011;34873;49.142;9.118;2024-01-11T14:20:41;0.40;;;0.40;;
49061;SDS011;34873;49.142;9.118;2024-01-11T14:23:10;0.65;;;0.20;;
49061;SDS011;34873;49.142;9.118;2024-01-11T14:25:37;0.25;;;0.22;;
49061;SDS011;34873;49.142;9.118;2024-01-11T14:28:05;0.17;;;0.17;;
49061;SDS011;34873;49.142;9.118;2024-01-11T14:30:34;0.30;;;0.30;;
49061;SDS011;34873;49.142;9.118;2024-01-11T14:33:04;0.50;;;0.40;;
49061;SDS011;34873;49.142;9.118;2024-01-11T14:35:37;0.30;;;0.30;;
49061;SDS011;34873;49.142;9.118;2024-01-11T14:38:05;0.35;;;0.35;;
49061;SDS011;34873;49.142;9.118;2024-01-11T14:40:30;0.40;;;0.30;;
49061;SDS011;34873;49.142;9.118;2024-01-11T14:42:56;0.30;;;0.30;;
49061;SDS011;34873;49.142;9.118;2024-01-11T14:45:24;0.25;;;0.25;;
49061;SDS011;34873;49.142;9.118;2024-01-11T14:47:52;0.40;;;0.40;;
49061;SDS011;34873;49.142;9.118;2024-01-11T14:50:19;0.28;;;0.28;;
49061;SDS011;34873;49.142;9.118;2024-01-11T14:52:45;0.45;;;0.20;;
49061;SDS011;34873;49.142;9.118;2024-01-11T14:55:13;0.68;;;0.28;;
49061;SDS011;34873;49.142;9.118;2024-01-11T14:57:39;3.20;;;1.15;;
49061;SDS011;34873;49.142;9.118;2024-01-11T15:00:05;4.13;;;2.03;;
49061;SDS011;34873;49.142;9.118;2024-01-11T15:02:35;10.35;;;3.40;;
49061;SDS011;34873;49.142;9.118;2024-01-11T15:05:01;3.55;;;1.92;;
49061;SDS011;34873;49.142;9.118;2024-01-11T15:07:29;6.13;;;2.65;;
49061;SDS011;34873;49.142;9.118;2024-01-11T15:09:57;4.78;;;2.80;;
49061;SDS011;34873;49.142;9.118;2024-01-11T15:12:23;5.07;;;3.60;;
49061;SDS011;34873;49.142;9.118;2024-01-11T15:14:48;7.97;;;3.42;;
49061;SDS011;34873;49.142;9.118;2024-01-11T15:17:18;7.15;;;2.42;;
49061;SDS011;34873;49.142;9.118;2024-01-11T15:19:46;3.55;;;2.25;;
49061;SDS011;34873;49.142;9.118;2024-01-11T15:22:17;3.35;;;2.00;;